createdAt,value
2024-02-02T00:01:52.072Z,103008.22
2024-02-02T00:04:20.159Z,103013.25
2024-02-02T00:06:48.166Z,103001.69
2024-02-02T00:09:17.630Z,103002.81
2024-02-02T00:11:45.572Z,102993.16
2024-02-02T00:14:13.616Z,102986.59
2024-02-02T00:16:41.512Z,102974.97
2024-02-02T00:19:09.689Z,102977.34
2024-02-02T00:21:37.657Z,102974.63
2024-02-02T00:24:05.879Z,102979.66
2024-02-02T00:26:35.455Z,102966.91
2024-02-02T00:29:04.055Z,102973.47
2024-02-02T00:31:31.966Z,102975.81
2024-02-02T00:34:00.057Z,102980.50
2024-02-02T00:36:28.047Z,102992.50
2024-02-02T00:38:56.035Z,102981.31
2024-02-02T00:41:23.987Z,102977.88
2024-02-02T00:43:53.240Z,102975.94
2024-02-02T00:46:21.176Z,102992.25
2024-02-02T00:48:49.142Z,102992.66
2024-02-02T00:51:17.145Z,102993.84
2024-02-02T00:53:45.041Z,102980.31
2024-02-02T00:56:12.967Z,102975.31
2024-02-02T00:58:40.993Z,102978.44
2024-02-02T01:01:10.336Z,102973.78
2024-02-02T01:03:38.936Z,102963.38
2024-02-02T01:06:07.234Z,102962.22
2024-02-02T01:08:35.259Z,102951.78
2024-02-02T01:11:04.021Z,102951.00
2024-02-02T01:13:32.159Z,102935.53
2024-02-02T01:16:00.071Z,102947.94
2024-02-02T01:18:29.452Z,102944.84
2024-02-02T01:20:57.598Z,102942.56
2024-02-02T01:23:25.759Z,102950.31
2024-02-02T01:25:53.646Z,102939.91
2024-02-02T01:28:21.571Z,102930.25
2024-02-02T01:30:49.497Z,102931.03
2024-02-02T01:33:17.584Z,102926.78
2024-02-02T01:35:46.922Z,102914.75
2024-02-02T01:38:14.983Z,102910.91
2024-02-02T01:40:43.411Z,102902.41
2024-02-02T01:43:11.448Z,102896.22
2024-02-02T01:45:39.738Z,102886.16
2024-02-02T01:48:10.114Z,102883.06
2024-02-02T01:50:38.637Z,102888.09
2024-02-02T01:53:08.057Z,102893.16
2024-02-02T01:55:36.207Z,102893.16
2024-02-02T01:58:04.564Z,102887.75
2024-02-02T02:00:32.892Z,102881.16
2024-02-02T02:03:01.104Z,102871.47
2024-02-02T02:05:29.178Z,102888.16
2024-02-02T02:07:57.198Z,102888.94
2024-02-02T02:10:26.607Z,102885.44
2024-02-02T02:12:54.504Z,102894.75
2024-02-02T02:15:24.697Z,102899.00
2024-02-02T02:17:53.692Z,102892.47
2024-02-02T02:20:23.947Z,102880.03
2024-02-02T02:22:53.510Z,102872.72
2024-02-02T02:25:21.498Z,102880.44
2024-02-02T02:27:49.752Z,102879.28
2024-02-02T02:30:18.184Z,102871.13
2024-02-02T02:32:46.281Z,102857.19
2024-02-02T02:35:14.298Z,102856.41
2024-02-02T02:37:42.240Z,102848.66
2024-02-02T02:40:12.574Z,102847.88
2024-02-02T02:42:41.019Z,102845.56
2024-02-02T02:45:09.411Z,102831.22
2024-02-02T02:47:38.197Z,102830.78
2024-02-02T02:50:07.454Z,102829.25
2024-02-02T02:52:35.341Z,102827.72
2024-02-02T02:55:03.429Z,102827.72
2024-02-02T02:57:32.883Z,102821.50
2024-02-02T03:00:00.992Z,102812.97
2024-02-02T03:02:29.027Z,102810.66
2024-02-02T03:04:57.011Z,102800.56
2024-02-02T03:07:25.278Z,102789.31
2024-02-02T03:09:53.163Z,102790.91
2024-02-02T03:12:21.109Z,102781.94
2024-02-02T03:14:50.547Z,102783.09
2024-02-02T03:17:18.494Z,102780.78
2024-02-02T03:19:46.477Z,102776.47
2024-02-02T03:22:14.398Z,102776.06
2024-02-02T03:24:42.365Z,102775.28
2024-02-02T03:27:10.333Z,102767.16
2024-02-02T03:29:38.329Z,102776.84
2024-02-02T03:32:08.222Z,102777.22
2024-02-02T03:34:36.294Z,102772.94
2024-02-02T03:37:04.263Z,102769.84
2024-02-02T03:39:32.261Z,102759.75
2024-02-02T03:42:00.209Z,102773.28
2024-02-02T03:44:28.168Z,102772.13
2024-02-02T03:46:56.129Z,102779.47
2024-02-02T03:49:25.507Z,102786.44
2024-02-02T03:51:53.484Z,102770.94
2024-02-02T03:54:21.508Z,102782.16
2024-02-02T03:56:49.471Z,102788.72
2024-02-02T03:59:17.731Z,102788.72
2024-02-02T04:01:45.783Z,102785.25
2024-02-02T04:04:13.899Z,102773.28
2024-02-02T04:06:43.273Z,102777.53
2024-02-02T04:09:11.503Z,102779.13
2024-02-02T04:11:39.617Z,102769.06
2024-02-02T04:14:07.891Z,102778.38
2024-02-02T04:16:35.779Z,102764.06
2024-02-02T04:19:03.963Z,102761.34
2024-02-02T04:21:32.034Z,102751.66
2024-02-02T04:24:01.407Z,102763.28
2024-02-02T04:26:29.322Z,102762.47
2024-02-02T04:28:57.253Z,102760.94
2024-02-02T04:31:25.473Z,102749.34
2024-02-02T04:33:53.542Z,102745.84
2024-02-02T04:36:21.598Z,102730.72
2024-02-02T04:38:49.537Z,102735.00
2024-02-02T04:41:18.846Z,102736.50
2024-02-02T04:43:46.767Z,102726.47
2024-02-02T04:46:14.803Z,102725.69
2024-02-02T04:48:42.789Z,102718.72
2024-02-02T04:51:10.850Z,102720.28
2024-02-02T04:53:38.782Z,102728.38
2024-02-02T04:56:07.074Z,102721.06
2024-02-02T04:58:36.368Z,102719.50
2024-02-02T05:01:04.625Z,102719.13
2024-02-02T05:03:33.294Z,102711.78
2024-02-02T05:06:01.429Z,102710.22
2024-02-02T05:08:29.558Z,102707.53
2024-02-02T05:10:57.499Z,102705.97
2024-02-02T05:13:25.466Z,102692.00
2024-02-02T05:15:54.750Z,102699.38
2024-02-02T05:18:22.794Z,102691.59
2024-02-02T05:20:51.128Z,102680.78
2024-02-02T05:23:19.093Z,102686.94
2024-02-02T05:25:47.057Z,102677.28
2024-02-02T05:28:15.180Z,102669.53
2024-02-02T05:30:43.245Z,102676.88
2024-02-02T05:33:12.667Z,102679.56
2024-02-02T05:35:40.669Z,102689.22
2024-02-02T05:38:08.653Z,102683.03
2024-02-02T05:40:36.532Z,102677.63
2024-02-02T05:43:04.568Z,102665.22
2024-02-02T05:45:32.524Z,102671.81
2024-02-02T05:48:00.542Z,102673.72
2024-02-02T05:50:29.928Z,102680.28
2024-02-02T05:52:57.879Z,102678.75
2024-02-02T05:55:25.789Z,102681.44
2024-02-02T05:57:53.693Z,102678.34
2024-02-02T06:00:21.815Z,102687.25
2024-02-02T06:02:49.896Z,102689.56
2024-02-02T06:05:17.785Z,102697.31
2024-02-02T06:07:47.110Z,102698.06
2024-02-02T06:10:15.247Z,102709.31
2024-02-02T06:12:43.246Z,102701.94
2024-02-02T06:15:11.545Z,102695.75
2024-02-02T06:17:39.570Z,102693.47
2024-02-02T06:20:08.923Z,102690.34
2024-02-02T06:22:36.966Z,102702.72
2024-02-02T06:25:07.017Z,102709.72
2024-02-02T06:27:35.094Z,102703.50
2024-02-02T06:30:04.950Z,102705.44
2024-02-02T06:32:33.394Z,102701.59
2024-02-02T06:35:01.635Z,102705.84
2024-02-02T06:37:30.095Z,102698.06
2024-02-02T06:39:58.849Z,102694.22
2024-02-02T06:42:28.268Z,102686.13
2024-02-02T06:44:58.346Z,102696.94
2024-02-02T06:47:26.445Z,102690.75
2024-02-02T06:49:54.528Z,102686.88
2024-02-02T06:52:22.889Z,102686.13
2024-02-02T06:54:50.992Z,102682.25
2024-02-02T06:57:19.450Z,102682.25
2024-02-02T06:59:50.827Z,102682.25
2024-02-02T07:02:20.848Z,102685.34
2024-02-02T07:04:49.519Z,102683.41
2024-02-02T07:07:17.697Z,102688.84
2024-02-02T07:09:52.490Z,102681.50
2024-02-02T07:12:58.246Z,102680.34
2024-02-02T07:15:29.683Z,102677.63
2024-02-02T07:17:59.129Z,102678.41
2024-02-02T07:21:02.408Z,102677.28
2024-02-02T07:23:35.472Z,102672.66
2024-02-02T07:26:07.016Z,102679.22
2024-02-02T07:28:40.262Z,102679.59
2024-02-02T07:31:10.563Z,102683.09
2024-02-02T07:33:42.057Z,102683.88
2024-02-02T07:36:13.806Z,102678.81
2024-02-02T07:38:50.291Z,102683.88
2024-02-02T07:41:19.736Z,102683.88
2024-02-02T07:43:48.990Z,102683.88
2024-02-02T07:46:18.914Z,102680.78
2024-02-02T07:48:48.216Z,102681.19
2024-02-02T07:51:19.120Z,102680.44
2024-02-02T07:53:48.012Z,102677.75
2024-02-02T07:56:16.704Z,102679.28
2024-02-02T07:58:44.624Z,102678.16
2024-02-02T08:01:12.994Z,102680.09
2024-02-02T08:03:42.555Z,102677.03
2024-02-02T08:06:10.680Z,102675.88
2024-02-02T08:08:38.843Z,102674.38
2024-02-02T08:11:06.830Z,102677.44
2024-02-02T08:13:34.888Z,102679.41
2024-02-02T08:16:02.833Z,102661.22
2024-02-02T08:18:32.034Z,102668.22
2024-02-02T08:21:02.163Z,102667.06
2024-02-02T08:23:30.347Z,102667.09
2024-02-02T08:25:58.340Z,102658.97
2024-02-02T08:28:26.346Z,102650.88
2024-02-02T08:30:54.539Z,102661.34
2024-02-02T08:33:22.655Z,102657.13
2024-02-02T08:35:50.600Z,102652.88
2024-02-02T08:38:20.159Z,102639.72
2024-02-02T08:40:49.351Z,102645.94
2024-02-02T08:43:20.522Z,102634.72
2024-02-02T08:46:14.078Z,102636.31
2024-02-02T08:48:45.746Z,102627.03
2024-02-02T08:51:53.809Z,102628.22
2024-02-02T08:54:37.931Z,102631.75
2024-02-02T08:57:31.986Z,102632.16
2024-02-02T09:00:06.200Z,102637.22
2024-02-02T09:02:53.622Z,102629.47
2024-02-02T09:05:24.053Z,102624.06
2024-02-02T09:07:54.059Z,102629.13
2024-02-02T09:11:22.442Z,102629.50
2024-02-02T09:13:59.307Z,102642.69
2024-02-02T09:16:39.136Z,102632.63
2024-02-02T09:19:16.672Z,102620.63
2024-02-02T09:21:44.599Z,102618.31
2024-02-02T09:24:18.941Z,102617.16
2024-02-02T09:26:48.282Z,102635.00
2024-02-02T09:29:16.153Z,102622.59
2024-02-02T09:31:44.124Z,102634.25
2024-02-02T09:34:21.427Z,102617.56
2024-02-02T09:36:49.509Z,102617.56
2024-02-02T09:39:50.319Z,102620.28
2024-02-02T09:42:36.934Z,102621.06
2024-02-02T09:45:08.924Z,102619.91
2024-02-02T09:47:56.554Z,102619.91
2024-02-02T09:50:44.726Z,102619.13
2024-02-02T09:53:29.603Z,102623.00
2024-02-02T09:56:06.992Z,102629.22
2024-02-02T09:58:40.693Z,102623.41
2024-02-02T10:01:23.966Z,102630.75
2024-02-02T10:04:03.330Z,102639.69
2024-02-02T10:06:45.055Z,102639.31
2024-02-02T10:09:29.734Z,102627.66
2024-02-02T10:12:21.047Z,102639.31
2024-02-02T10:15:24.362Z,102639.28
2024-02-02T10:18:08.014Z,102637.38
2024-02-02T10:20:43.380Z,102640.84
2024-02-02T10:23:45.423Z,102633.47
2024-02-02T10:26:51.173Z,102637.34
2024-02-02T10:29:28.971Z,102641.22
2024-02-02T10:32:16.401Z,102625.69
2024-02-02T10:34:58.302Z,102636.91
2024-02-02T10:37:35.832Z,102632.63
2024-02-02T10:40:20.217Z,102636.50
2024-02-02T10:43:10.361Z,102631.09
2024-02-02T10:45:44.138Z,102637.25
2024-02-02T10:48:32.806Z,102646.19
2024-02-02T10:51:14.187Z,102635.28
2024-02-02T10:53:56.529Z,102635.69
2024-02-02T10:56:35.221Z,102632.94
2024-02-02T10:59:16.023Z,102640.28
2024-02-02T11:01:54.932Z,102627.09
2024-02-02T11:04:32.796Z,102619.31
2024-02-02T11:07:13.860Z,102632.09
2024-02-02T11:09:53.820Z,102622.75
2024-02-02T11:12:31.270Z,102611.09
2024-02-02T11:15:10.692Z,102616.91
2024-02-02T11:17:51.340Z,102619.19
2024-02-02T11:20:33.953Z,102623.06
2024-02-02T11:23:07.958Z,102630.47
2024-02-02T11:25:42.278Z,102614.91
2024-02-02T11:28:18.210Z,102614.53
2024-02-02T11:30:59.010Z,102605.56
2024-02-02T11:33:43.861Z,102611.00
2024-02-02T11:36:25.946Z,102613.34
2024-02-02T11:39:08.181Z,102612.56
2024-02-02T11:41:38.384Z,102607.50
2024-02-02T11:44:07.523Z,102620.72
2024-02-02T11:46:37.230Z,102608.28
2024-02-02T11:49:10.503Z,102600.16
2024-02-02T11:51:47.314Z,102595.09
2024-02-02T11:54:20.790Z,102589.66
2024-02-02T11:56:52.494Z,102587.75
2024-02-02T11:59:27.398Z,102591.66
2024-02-02T12:02:06.484Z,102595.19
2024-02-02T12:04:39.499Z,102591.28
2024-02-02T12:07:21.098Z,102588.56
2024-02-02T12:09:52.404Z,102587.00
2024-02-02T12:12:23.680Z,102599.06
2024-02-02T12:14:52.719Z,102597.47
2024-02-02T12:17:22.227Z,102595.91
2024-02-02T12:19:50.476Z,102597.09
2024-02-02T12:22:20.347Z,102589.69
2024-02-02T12:24:48.398Z,102600.56
2024-02-02T12:27:16.748Z,102585.78
2024-02-02T12:29:45.615Z,102585.41
2024-02-02T12:32:14.427Z,102585.78
2024-02-02T12:34:42.851Z,102593.91
2024-02-02T12:37:11.248Z,102580.31
2024-02-02T12:39:40.734Z,102577.16
2024-02-02T12:42:09.197Z,102577.91
2024-02-02T12:44:37.209Z,102575.97
2024-02-02T12:47:07.809Z,102577.91
2024-02-02T12:49:38.195Z,102579.44
2024-02-02T12:52:07.713Z,102581.00
2024-02-02T12:54:35.964Z,102583.31
2024-02-02T12:57:06.220Z,102570.13
2024-02-02T12:59:34.264Z,102565.03
2024-02-02T13:02:02.241Z,102561.53
2024-02-02T13:04:30.383Z,102554.50
2024-02-02T13:06:58.547Z,102548.31
2024-02-02T13:09:30.544Z,102566.16
2024-02-02T13:12:00.143Z,102554.50
2024-02-02T13:14:30.005Z,102545.53
2024-02-02T13:17:10.800Z,102537.78
2024-02-02T13:19:43.126Z,102545.91
2024-02-02T13:22:20.322Z,102539.31
2024-02-02T13:24:50.056Z,102535.44
2024-02-02T13:27:19.656Z,102529.94
2024-02-02T13:29:53.720Z,102522.56
2024-02-02T13:32:22.779Z,102525.28
2024-02-02T13:34:51.107Z,102527.97
2024-02-02T13:37:30.503Z,102518.66
2024-02-02T13:40:00.185Z,102515.94
2024-02-02T13:42:29.650Z,102507.34
2024-02-02T13:45:08.530Z,102508.47
2024-02-02T13:47:37.685Z,102494.06
2024-02-02T13:50:16.846Z,102499.53
2024-02-02T13:52:50.133Z,102506.50
2024-02-02T13:55:19.865Z,102502.97
2024-02-02T13:57:49.460Z,102503.72
2024-02-02T14:00:20.426Z,102514.22
2024-02-02T14:02:48.500Z,102512.25
2024-02-02T14:05:16.525Z,102503.31
2024-02-02T14:07:54.949Z,102509.13
2024-02-02T14:10:23.544Z,102506.00
2024-02-02T14:12:51.741Z,102505.97
2024-02-02T14:15:21.790Z,102511.03
2024-02-02T14:17:49.761Z,102505.59
2024-02-02T14:20:17.714Z,102505.59
2024-02-02T14:22:46.058Z,102502.09
2024-02-02T14:25:14.028Z,102504.06
2024-02-02T14:27:42.983Z,102496.66
2024-02-02T14:30:22.737Z,102507.56
2024-02-02T14:32:56.188Z,102506.41
2024-02-02T14:35:29.026Z,102503.31
2024-02-02T14:37:57.003Z,102505.28
2024-02-02T14:40:24.952Z,102490.09
2024-02-02T14:42:52.866Z,102487.78
2024-02-02T14:45:22.211Z,102486.59
2024-02-02T14:47:50.213Z,102491.69
2024-02-02T14:50:18.813Z,102501.03
2024-02-02T14:52:46.771Z,102484.69
2024-02-02T14:55:14.801Z,102480.41
2024-02-02T14:57:43.385Z,102482.38
2024-02-02T15:00:20.033Z,102473.00
2024-02-02T15:02:50.947Z,102476.56
2024-02-02T15:05:18.909Z,102471.50
2024-02-02T15:07:46.922Z,102479.66
2024-02-02T15:10:14.888Z,102479.72
2024-02-02T15:12:43.602Z,102477.00
2024-02-02T15:15:11.906Z,102477.38
2024-02-02T15:17:40.096Z,102466.50
2024-02-02T15:20:11.584Z,102458.75
2024-02-02T15:22:39.933Z,102474.28
2024-02-02T15:25:09.516Z,102465.34
2024-02-02T15:27:39.275Z,102469.28
2024-02-02T15:30:08.882Z,102463.81
2024-02-02T15:32:36.838Z,102448.69
2024-02-02T15:35:05.285Z,102467.00
2024-02-02T15:37:34.602Z,102467.00
2024-02-02T15:40:02.697Z,102466.59
2024-02-02T15:42:34.234Z,102462.72
2024-02-02T15:45:06.073Z,102464.31
2024-02-02T15:47:35.392Z,102465.47
2024-02-02T15:50:03.920Z,102462.75
2024-02-02T15:52:32.054Z,102460.84
2024-02-02T15:55:04.457Z,102474.03
2024-02-02T15:57:32.757Z,102477.16
2024-02-02T16:00:00.871Z,102474.81
2024-02-02T16:02:28.828Z,102479.47
2024-02-02T16:04:59.524Z,102478.69
2024-02-02T16:07:27.636Z,102482.97
2024-02-02T16:09:57.407Z,102469.38
2024-02-02T16:12:26.759Z,102466.66
2024-02-02T16:14:54.734Z,102474.41
2024-02-02T16:17:22.752Z,102479.84
2024-02-02T16:19:52.807Z,102469.75
2024-02-02T16:22:22.779Z,102475.19
2024-02-02T16:24:50.845Z,102472.47
2024-02-02T16:27:19.131Z,102480.63
2024-02-02T16:29:48.432Z,102482.16
2024-02-02T16:32:16.372Z,102479.44
2024-02-02T16:34:44.536Z,102473.22
2024-02-02T16:37:12.540Z,102473.97
2024-02-02T16:39:40.530Z,102465.81
2024-02-02T16:42:08.520Z,102470.50
2024-02-02T16:44:36.423Z,102466.97
2024-02-02T16:47:05.857Z,102466.97
2024-02-02T16:49:34.038Z,102467.38
2024-02-02T16:52:03.466Z,102463.88
2024-02-02T16:54:32.513Z,102455.72
2024-02-02T16:57:00.640Z,102467.03
2024-02-02T16:59:28.668Z,102450.31
2024-02-02T17:01:56.556Z,102461.59
2024-02-02T17:04:26.183Z,102458.13
2024-02-02T17:06:54.294Z,102457.34
2024-02-02T17:09:22.275Z,102458.50
2024-02-02T17:11:50.170Z,102460.47
2024-02-02T17:14:18.095Z,102467.44
2024-02-02T17:16:46.061Z,102470.56
2024-02-02T17:19:14.203Z,102480.66
2024-02-02T17:21:44.200Z,102490.00
2024-02-02T17:24:12.163Z,102488.84
2024-02-02T17:26:40.859Z,102486.09
2024-02-02T17:29:15.176Z,102494.28
2024-02-02T17:31:47.453Z,102503.63
2024-02-02T17:34:16.334Z,102496.66
2024-02-02T17:36:46.223Z,102495.47
2024-02-02T17:39:14.370Z,102510.59
2024-02-02T17:41:42.400Z,102502.44
2024-02-02T17:44:10.306Z,102505.16
2024-02-02T17:46:38.363Z,102509.06
2024-02-02T17:49:06.384Z,102504.38
2024-02-02T17:51:34.468Z,102509.84
2024-02-02T17:54:03.950Z,102516.84
2024-02-02T17:56:31.935Z,102514.88
2024-02-02T17:58:59.956Z,102528.09
2024-02-02T18:01:28.017Z,102527.31
2024-02-02T18:03:56.000Z,102538.19
2024-02-02T18:06:24.190Z,102530.81
2024-02-02T18:08:52.148Z,102544.44
2024-02-02T18:11:21.416Z,102535.84
2024-02-02T18:13:49.691Z,102547.91
2024-02-02T18:16:17.880Z,102557.63
2024-02-02T18:18:46.896Z,102552.94
2024-02-02T18:21:15.277Z,102546.75
2024-02-02T18:23:43.249Z,102544.44
2024-02-02T18:26:11.210Z,102540.91
2024-02-02T18:28:40.536Z,102540.16
2024-02-02T18:31:08.454Z,102550.25
2024-02-02T18:33:36.660Z,102542.88
2024-02-02T18:36:05.054Z,102542.88
2024-02-02T18:38:33.984Z,102546.78
2024-02-02T18:41:01.944Z,102551.41
2024-02-02T18:43:29.870Z,102544.06
2024-02-02T18:45:59.134Z,102556.09
2024-02-02T18:48:27.254Z,102545.97
2024-02-02T18:50:55.250Z,102551.41
2024-02-02T18:53:23.174Z,102549.50
2024-02-02T18:55:53.150Z,102542.09
2024-02-02T18:58:26.267Z,102549.88
2024-02-02T19:01:01.298Z,102547.16
2024-02-02T19:03:29.374Z,102542.84
2024-02-02T19:06:00.664Z,102540.91
2024-02-02T19:08:28.639Z,102548.31
2024-02-02T19:10:56.657Z,102545.97
2024-02-02T19:13:24.684Z,102545.16
2024-02-02T19:15:52.663Z,102548.69
2024-02-02T19:18:22.080Z,102550.22
2024-02-02T19:20:50.050Z,102545.91
2024-02-02T19:23:17.953Z,102549.03
2024-02-02T19:25:45.867Z,102543.19
2024-02-02T19:28:13.748Z,102545.56
2024-02-02T19:30:43.052Z,102530.38
2024-02-02T19:33:11.179Z,102536.59
2024-02-02T19:35:40.708Z,102531.94
2024-02-02T19:38:08.787Z,102534.66
2024-02-02T19:40:36.876Z,102534.66
2024-02-02T19:43:05.154Z,102539.31
2024-02-02T19:45:33.095Z,102537.38
2024-02-02T19:48:01.231Z,102544.38
2024-02-02T19:50:29.217Z,102550.56
2024-02-02T19:52:58.971Z,102558.75
2024-02-02T19:55:28.670Z,102557.97
2024-02-02T19:57:56.617Z,102543.22
2024-02-02T20:00:24.854Z,102543.97
2024-02-02T20:02:53.077Z,102552.13
2024-02-02T20:05:24.176Z,102544.38
2024-02-02T20:07:53.724Z,102546.31
2024-02-02T20:10:24.191Z,102546.31
2024-02-02T20:12:52.207Z,102545.19
2024-02-02T20:15:20.197Z,102542.47
2024-02-02T20:17:48.185Z,102552.22
2024-02-02T20:20:16.484Z,102552.63
2024-02-02T20:22:44.718Z,102558.06
2024-02-02T20:25:12.807Z,102553.03
2024-02-02T20:27:42.160Z,102556.91
2024-02-02T20:30:11.486Z,102555.78
2024-02-02T20:32:39.603Z,102552.28
2024-02-02T20:35:08.101Z,102549.56
2024-02-02T20:37:36.097Z,102547.66
2024-02-02T20:40:05.838Z,102545.31
2024-02-02T20:42:33.806Z,102545.31
2024-02-02T20:45:05.656Z,102555.38
2024-02-02T20:47:34.171Z,102550.34
2024-02-02T20:50:02.196Z,102548.75
2024-02-02T20:52:30.176Z,102550.31
2024-02-02T20:55:00.197Z,102539.44
2024-02-02T20:57:28.204Z,102547.97
2024-02-02T20:59:56.327Z,102545.25
2024-02-02T21:02:25.619Z,102532.81
2024-02-02T21:04:53.675Z,102532.03
2024-02-02T21:07:21.800Z,102530.09
2024-02-02T21:09:50.020Z,102544.47
2024-02-02T21:12:18.022Z,102547.97
2024-02-02T21:14:49.396Z,102541.34
2024-02-02T21:17:18.174Z,102545.63
2024-02-02T21:19:47.500Z,102544.06
2024-02-02T21:22:15.586Z,102533.56
2024-02-02T21:24:43.607Z,102535.50
2024-02-02T21:27:11.879Z,102536.28
2024-02-02T21:29:39.785Z,102547.16
2024-02-02T21:32:07.926Z,102535.91
2024-02-02T21:34:35.996Z,102547.53
2024-02-02T21:37:05.845Z,102538.19
2024-02-02T21:39:33.800Z,102537.03
2024-02-02T21:42:01.861Z,102536.63
2024-02-02T21:44:29.874Z,102530.78
2024-02-02T21:46:59.515Z,102543.22
2024-02-02T21:49:27.648Z,102536.59
2024-02-02T21:51:55.931Z,102527.25
2024-02-02T21:54:25.242Z,102533.84
2024-02-02T21:56:53.767Z,102528.03
2024-02-02T21:59:21.681Z,102533.84
2024-02-02T22:01:49.558Z,102543.16
2024-02-02T22:04:18.697Z,102541.97
2024-02-02T22:06:47.256Z,102535.34
2024-02-02T22:09:15.373Z,102536.50
2024-02-02T22:11:44.881Z,102536.06
2024-02-02T22:14:12.809Z,102523.22
2024-02-02T22:16:40.708Z,102528.69
2024-02-02T22:19:08.695Z,102518.97
2024-02-02T22:21:37.066Z,102518.53
2024-02-02T22:24:05.797Z,102531.75
2024-02-02T22:26:33.721Z,102521.63
2024-02-02T22:29:03.013Z,102527.44
2024-02-02T22:31:30.902Z,102523.53
2024-02-02T22:33:58.890Z,102526.63
2024-02-02T22:36:26.899Z,102530.94
2024-02-02T22:38:56.024Z,102535.94
2024-02-02T22:41:32.918Z,102523.13
2024-02-02T22:44:04.047Z,102537.09
2024-02-02T22:46:31.810Z,102537.88
2024-02-02T22:49:00.073Z,102528.53
2024-02-02T22:51:28.205Z,102532.81
2024-02-02T22:53:56.174Z,102520.72
2024-02-02T22:56:24.153Z,102520.72
2024-02-02T22:58:52.069Z,102510.59
2024-02-02T23:01:21.546Z,102506.75
2024-02-02T23:03:49.665Z,102509.47
2024-02-02T23:06:17.974Z,102507.94
2024-02-02T23:08:45.975Z,102509.09
2024-02-02T23:11:15.729Z,102512.56
2024-02-02T23:13:43.708Z,102515.31
2024-02-02T23:16:12.308Z,102526.19
2024-02-02T23:18:41.883Z,102525.81
2024-02-02T23:21:09.931Z,102526.19
2024-02-02T23:23:37.874Z,102530.09
2024-02-02T23:26:06.024Z,102511.78
2024-02-02T23:28:33.952Z,102513.75
2024-02-02T23:31:02.536Z,102505.91
2024-02-02T23:33:30.796Z,102505.16
2024-02-02T23:36:00.220Z,102514.09
2024-02-02T23:38:28.137Z,102502.81
2024-02-02T23:40:56.878Z,102507.47
2024-02-02T23:43:25.004Z,102503.63
2024-02-02T23:45:53.057Z,102505.16
2024-02-02T23:48:21.155Z,102518.00
2024-02-02T23:50:49.121Z,102515.28
2024-02-02T23:53:18.399Z,102515.28
2024-02-02T23:55:46.353Z,102508.66
2024-02-02T23:58:14.289Z,102513.31
